Terminal Aerodrome Forecast
Issued by NWS

Current Version | Previous Version | Text Only | Print | Product List | Glossary Off
Versions: 1 2 3 4 5 6 7 8 9 10 11 12 13 14 15 16 17 18 19 20 21 22 23 24

000
FTUS41 KILN 220548
TAFLCK
TAF
KLCK 220548Z 2206/2306 16003KT P6SM SCT040
     FM221000 00000KT P6SM -SHRA OVC025
     FM221300 18005KT 4SM -SHRA VCTS OVC018CB
      TEMPO 2213/2217 2SM TSRA OVC012CB
     FM221700 23010G18KT P6SM BKN040
     FM222200 22012KT 5SM -SHRA VCTS BKN045CB
     FM222300 23010KT 2SM TSRA OVC040CB
     FM230500 23009KT P6SM -SHRA VCTS BKN040CB=

USA.gov is the U.S. government's official web portal to all federal, state and local government web resources and services.